AirNav   Get $300 off a Bose A20
 
 1256 users online  

1TE4 Zuehl Airport
Marion, Texas, USA

GOING TO MARION?


FAA INFORMATION EFFECTIVE 23 MAY 2019

Location

FAA Identifier: 1TE4
Lat/Long: 29-29-43.8330N / 098-09-28.0320W
29-29.730550N / 098-09.467200W
29.4955092 / -98.1577867
(estimated)
Elevation: 592 ft. / 180 m (estimated)
Variation: 07E (1985)
From city: 4 miles S of MARION, TX
Time zone: UTC -5 (UTC -6 during Standard Time)
Zip code: 78124

Airport Operations

Airport use: Private use. Permission required prior to landing
Activation date: 06/1974
Control tower: no
ARTCC: HOUSTON CENTER
FSS: SAN ANGELO FLIGHT SERVICE STATION
Attendance: CONTINUOUS
Wind indicator: yes
Segmented circle: no

Airport Communications

WX ASOS at BAZ (14 nm NE): 119.325 (830-629-7979)
WX ASOS at SAT (16 nm W): PHONE 210-805-5583
WX ASOS at SSF (19 nm SW): PHONE 210-927-9391

Nearby radio navigation aids

VOR radial/distance  VOR name  Freq  Var
RNDr097/6.8RANDOLPH VORTAC112.3005E
SATr111/18.2SAN ANTONIO VORTAC116.8008E
SSFr037/(20.6)STINSON VOR108.4009E

Airport Services

Fuel available: 100
Airframe service: NONE
Powerplant service: NONE

Runway Information

Runway 17/35

Dimensions: 3000 x 200 ft. / 914 x 61 m
Surface: turf
RUNWAY 17  RUNWAY 35
Traffic pattern: leftright
Runway end identifier lights: nono
Obstructions: trees, 800 ft. from runway, 14:1 slope to cleartrees, 800 ft. from runway, 14:1 slope to clear

Airport Ownership and Management from official FAA records

Ownership: Privately-owned
Owner: ZUEHL APT FLYING COMM OWNRS ASSN
P.O. BOX 430
MARION, TX 78124
Phone 210-279-9528
Manager: ZUEHL ARPT FLYING COMM OWNRS ASSN
P.O. BOX 430
MARION, TX 78124
Phone 210-279-9528
BILL SMITH 12223 BROWNSTONE LIVE OAK, TX 78233 210-279-9528 WILNLIL@EARTHLINK.NET

Airport Operational Statistics

Aircraft based on the field: 105
Single engine airplanes: 100
Helicopters: 1
Ultralights: 4
    
Aircraft operations: avg 86/week
89% local general aviation
11% transient general aviation

Additional Remarks

ACFT WINGSPAN LIMITED TO 60 FEET.
ARPT LOCATED IN CLOSE PROXIMITY TO RANDOLPH AFB.
FOR CD CTC SAN ANTONIO APCH AT 210-805-5516.
OWNER DESIRES CHARTING.

Instrument Procedures

There are no published instrument procedures at 1TE4.

Some nearby airports with instrument procedures:

KRND - Randolph Air Force Base (7 nm W)
KBAZ - New Braunfels Regional Airport (14 nm NE)
KSAT - San Antonio International Airport (16 nm W)
KSSF - Stinson Municipal Airport (19 nm SW)
KSKF - Kelly Field Airport (23 nm W)
 
Loc | Ops | Rwys | IFR | FBO | Links
Com | Nav | Svcs | Stats | Notes
Area around 1TE4 (Zuehl Airport)
 
Road maps at: MapQuest Bing Google
 
Aerial photo
WARNING: Photo may not be current or correct
Aerial photo of 1TE4 (Zuehl Airport)
Photo by “Krusty”
Photo taken 22-Jan-2011
looking north.

Do you have a better or more recent aerial photo of Zuehl Airport that you would like to share? If so, please send us your photo.

 
Sectional chart

 
Airport distance calculator
Flying to Zuehl Airport? Find the distance to fly.

From to 1TE4

Sunrise and sunset
Times for 22-May-2019
 Local
(UTC-5)
 Zulu
(UTC)
Morning civil twilight06:1111:11
Sunrise06:3711:37
Sunset20:2101:21
Evening civil twilight20:4801:48

Current date and time
Zulu (UTC)  22-May-2019 22:17:26
Local (UTC-5)  22-May-2019 17:17:26
 
METAR
KRND 
6nm W 
222156Z AUTO 16017KT 10SM FEW037 SCT048 32/23 A2976 RMK AO2 SLP068 T03150233 $
KSEQ 
14nm E 
222158Z AUTO 15014G22KT 10SM BKN043 32/23 A2980 RMK AO2 SLP086 T03160225
KBAZ 
14nm NE 
222151Z AUTO 16021KT 10SM FEW050 32/22 A2975 RMK AO2 SLP066 T03220222
KSAT 
16nm W 
222151Z 16016G27KT 10SM SCT038 BKN055 BKN250 31/22 A2976 RMK AO2 PK WND 13028/2124 SLP057 T03110217
KSSF 
19nm SW 
222153Z 13017G22KT 10SM -RA FEW040 SCT050 33/21 A2972 RMK AO2 RAB46 SLP050 P0000 T03280211
TAF
KRND 
6nm W 
221700Z 2217/2323 16015G25KT 9999 FEW030 SCT180 QNH2971INS BECMG 2300/2301 13012KT 9999 SCT017 520052 QNH2975INS BECMG 2303/2304 14012KT 9000 BR BKN010 OVC020 520052 QNH2985INS TEMPO 2308/2314 OVC009 BECMG 2314/2315 15015G25KT 9999 NSW BKN025 QNH2993INS BECMG 2317/2318 15015G25KT 9999 SCT035 QNH2984INS TX34/2221Z TN24/2312Z LAST NO AMDS AFT 2301 NEXT 2309
KSAT 
16nm W 
221801Z 2218/2324 15015G25KT P6SM BKN040 FM230300 13016KT P6SM BKN015 FM231400 16016KT P6SM BKN025 FM231700 17016G26KT P6SM SCT030 BKN040
KSSF 
19nm SW 
221801Z 2218/2318 14016G26KT P6SM BKN040 FM230300 13016KT P6SM BKN015 FM231500 15016KT P6SM BKN025
NOTAMs
Click for the latest NOTAMs
NOTAMs are issued by the DoD/FAA and will open in a separate window not controlled by AirNav.

 

 
 

Would you like to see your business listed on this page?

 If your business provides an interesting product or service to pilots, flight crews, aircraft, or users of the Zuehl Airport, you should consider listing it here.  To start the listing process, click on the button below
 
Add a business
 

Other Pages about Zuehl Airport

www.zuehlfield.com
 
Update a link
 
Copyright © AirNav, LLC. All rights reserved. Privacy Policy  Contact